sensor_id;sensor_type;location;lat;lon;timestamp;pressure;altitude;pressure_sealevel;temperature;humidity
79584;BME280;69053;57.338;18.700;2024-03-29T00:02:36;99072.44;;;10.85;65.42
79584;BME280;69053;57.338;18.700;2024-03-29T00:05:36;99083.38;;;10.91;65.09
79584;BME280;69053;57.338;18.700;2024-03-29T00:08:37;99077.06;;;10.85;65.04
79584;BME280;69053;57.338;18.700;2024-03-29T00:11:38;99085.81;;;10.87;64.94
79584;BME280;69053;57.338;18.700;2024-03-29T00:14:38;99098.03;;;10.84;65.24
79584;BME280;69053;57.338;18.700;2024-03-29T00:17:40;99091.97;;;10.77;65.58
79584;BME280;69053;57.338;18.700;2024-03-29T00:20:40;99100.38;;;10.76;65.35
79584;BME280;69053;57.338;18.700;2024-03-29T00:23:40;99107.75;;;10.75;65.27
79584;BME280;69053;57.338;18.700;2024-03-29T00:26:44;99110.22;;;10.77;65.51
79584;BME280;69053;57.338;18.700;2024-03-29T00:29:45;99114.06;;;10.81;65.21
79584;BME280;69053;57.338;18.700;2024-03-29T00:32:47;99117.63;;;10.81;65.27
79584;BME280;69053;57.338;18.700;2024-03-29T00:35:47;99123.59;;;10.78;64.99
79584;BME280;69053;57.338;18.700;2024-03-29T00:38:48;99133.97;;;10.81;65.29
79584;BME280;69053;57.338;18.700;2024-03-29T00:41:48;99118.69;;;10.80;65.03
79584;BME280;69053;57.338;18.700;2024-03-29T00:44:48;99122.97;;;10.71;65.60
79584;BME280;69053;57.338;18.700;2024-03-29T00:47:49;99126.50;;;10.72;65.14
79584;BME280;69053;57.338;18.700;2024-03-29T00:50:50;99128.91;;;10.68;65.37
79584;BME280;69053;57.338;18.700;2024-03-29T00:53:50;99122.13;;;10.70;65.23
79584;BME280;69053;57.338;18.700;2024-03-29T00:56:51;99123.53;;;10.73;64.96
79584;BME280;69053;57.338;18.700;2024-03-29T00:59:51;99131.13;;;10.71;65.16
79584;BME280;69053;57.338;18.700;2024-03-29T01:02:52;99135.69;;;10.65;65.09
79584;BME280;69053;57.338;18.700;2024-03-29T01:05:52;99144.69;;;10.66;65.44
79584;BME280;69053;57.338;18.700;2024-03-29T01:08:54;99136.00;;;10.69;65.07
79584;BME280;69053;57.338;18.700;2024-03-29T01:11:54;99134.56;;;10.61;65.16
79584;BME280;69053;57.338;18.700;2024-03-29T01:14:54;99129.06;;;10.56;65.40
79584;BME280;69053;57.338;18.700;2024-03-29T01:17:55;99137.47;;;10.55;65.45
79584;BME280;69053;57.338;18.700;2024-03-29T01:20:55;99137.47;;;10.55;65.83
79584;BME280;69053;57.338;18.700;2024-03-29T01:23:56;99134.25;;;10.58;65.44
79584;BME280;69053;57.338;18.700;2024-03-29T01:26:56;99140.25;;;10.60;65.25
79584;BME280;69053;57.338;18.700;2024-03-29T01:29:56;99134.19;;;10.53;65.68
79584;BME280;69053;57.338;18.700;2024-03-29T01:32:57;99147.31;;;10.56;65.73
79584;BME280;69053;57.338;18.700;2024-03-29T01:35:58;99150.59;;;10.58;65.04
79584;BME280;69053;57.338;18.700;2024-03-29T01:38:58;99154.06;;;10.53;65.03
79584;BME280;69053;57.338;18.700;2024-03-29T01:42:00;99155.97;;;10.53;65.35
79584;BME280;69053;57.338;18.700;2024-03-29T01:45:01;99166.56;;;10.49;65.43
79584;BME280;69053;57.338;18.700;2024-03-29T01:48:01;99168.97;;;10.45;65.21
79584;BME280;69053;57.338;18.700;2024-03-29T01:51:02;99179.59;;;10.47;65.62
79584;BME280;69053;57.338;18.700;2024-03-29T01:54:04;99176.03;;;10.46;65.44
79584;BME280;69053;57.338;18.700;2024-03-29T01:57:05;99183.06;;;10.42;65.07
79584;BME280;69053;57.338;18.700;2024-03-29T02:00:06;99178.88;;;10.35;65.62
79584;BME280;69053;57.338;18.700;2024-03-29T02:03:07;99187.63;;;10.37;65.63
79584;BME280;69053;57.338;18.700;2024-03-29T02:06:13;99176.84;;;10.25;65.48
79584;BME280;69053;57.338;18.700;2024-03-29T02:09:14;99172.69;;;10.22;65.67
79584;BME280;69053;57.338;18.700;2024-03-29T02:12:14;99182.78;;;10.22;65.49
79584;BME280;69053;57.338;18.700;2024-03-29T02:15:15;99185.09;;;10.13;66.36
79584;BME280;69053;57.338;18.700;2024-03-29T02:18:18;99193.94;;;10.03;66.46
79584;BME280;69053;57.338;18.700;2024-03-29T02:21:19;99190.72;;;9.89;67.14
79584;BME280;69053;57.338;18.700;2024-03-29T02:24:19;99185.13;;;9.96;66.82
79584;BME280;69053;57.338;18.700;2024-03-29T02:27:21;99193.22;;;9.91;67.19
79584;BME280;69053;57.338;18.700;2024-03-29T02:30:21;99198.16;;;9.94;66.58
79584;BME280;69053;57.338;18.700;2024-03-29T02:33:22;99199.13;;;9.88;66.80
79584;BME280;69053;57.338;18.700;2024-03-29T02:36:22;99199.13;;;9.88;67.12
79584;BME280;69053;57.338;18.700;2024-03-29T02:39:23;99182.59;;;9.72;67.51
79584;BME280;69053;57.338;18.700;2024-03-29T02:42:23;99191.84;;;9.71;67.29
79584;BME280;69053;57.338;18.700;2024-03-29T02:45:23;99191.56;;;9.73;67.63
79584;BME280;69053;57.338;18.700;2024-03-29T02:48:24;99192.31;;;9.68;67.40
79584;BME280;69053;57.338;18.700;2024-03-29T02:51:24;99186.47;;;9.76;67.43
79584;BME280;69053;57.338;18.700;2024-03-29T02:54:25;99200.00;;;9.71;67.43
79584;BME280;69053;57.338;18.700;2024-03-29T02:57:25;99207.94;;;9.78;66.92
79584;BME280;69053;57.338;18.700;2024-03-29T03:00:26;99207.31;;;9.71;67.91
79584;BME280;69053;57.338;18.700;2024-03-29T03:03:26;99219.59;;;9.73;67.34
79584;BME280;69053;57.338;18.700;2024-03-29T03:06:26;99225.53;;;9.70;67.49
79584;BME280;69053;57.338;18.700;2024-03-29T03:09:27;99224.03;;;9.80;67.30
79584;BME280;69053;57.338;18.700;2024-03-29T03:12:46;99233.44;;;9.72;67.58
79584;BME280;69053;57.338;18.700;2024-03-29T03:15:47;99235.16;;;9.78;67.15
79584;BME280;69053;57.338;18.700;2024-03-29T03:18:47;99237.06;;;9.77;66.96
79584;BME280;69053;57.338;18.700;2024-03-29T03:21:47;99247.28;;;9.70;67.33
79584;BME280;69053;57.338;18.700;2024-03-29T03:24:48;99245.84;;;9.68;66.91
79584;BME280;69053;57.338;18.700;2024-03-29T03:27:48;99238.88;;;9.72;67.52
79584;BME280;69053;57.338;18.700;2024-03-29T03:30:49;99241.69;;;9.77;66.67
79584;BME280;69053;57.338;18.700;2024-03-29T03:33:50;99236.72;;;9.57;67.44
79584;BME280;69053;57.338;18.700;2024-03-29T03:36:50;99242.72;;;9.76;66.69
79584;BME280;69053;57.338;18.700;2024-03-29T03:39:51;99234.25;;;9.72;67.98
79584;BME280;69053;57.338;18.700;2024-03-29T03:42:51;99243.97;;;9.68;67.37
79584;BME280;69053;57.338;18.700;2024-03-29T03:45:52;99241.09;;;9.75;66.89
79584;BME280;69053;57.338;18.700;2024-03-29T03:48:52;99236.25;;;9.77;67.75
79584;BME280;69053;57.338;18.700;2024-03-29T03:51:53;99243.81;;;9.75;67.79
79584;BME280;69053;57.338;18.700;2024-03-29T03:54:53;99249.59;;;9.79;67.04
79584;BME280;69053;57.338;18.700;2024-03-29T03:57:54;99252.97;;;9.86;66.70
79584;BME280;69053;57.338;18.700;2024-03-29T04:00:54;99251.38;;;9.90;67.46
79584;BME280;69053;57.338;18.700;2024-03-29T04:03:55;99261.78;;;9.93;67.20
79584;BME280;69053;57.338;18.700;2024-03-29T04:06:55;99267.88;;;10.17;66.46
79584;BME280;69053;57.338;18.700;2024-03-29T04:09:56;99266.88;;;10.23;65.95
79584;BME280;69053;57.338;18.700;2024-03-29T04:12:56;99278.09;;;10.27;66.05
79584;BME280;69053;57.338;18.700;2024-03-29T04:16:06;99286.94;;;10.34;65.32
79584;BME280;69053;57.338;18.700;2024-03-29T04:19:07;99286.13;;;10.34;65.64
79584;BME280;69053;57.338;18.700;2024-03-29T04:22:07;99280.75;;;10.39;65.25
79584;BME280;69053;57.338;18.700;2024-03-29T04:25:08;99288.34;;;10.37;65.48
79584;BME280;69053;57.338;18.700;2024-03-29T04:28:08;99291.81;;;10.32;65.26
79584;BME280;69053;57.338;18.700;2024-03-29T04:31:08;99295.41;;;10.38;65.36
79584;BME280;69053;57.338;18.700;2024-03-29T04:34:09;99296.91;;;10.45;64.96
79584;BME280;69053;57.338;18.700;2024-03-29T04:37:09;99292.78;;;10.43;65.28
79584;BME280;69053;57.338;18.700;2024-03-29T04:40:10;99305.41;;;10.49;64.77
79584;BME280;69053;57.338;18.700;2024-03-29T04:43:10;99312.16;;;10.46;65.11
79584;BME280;69053;57.338;18.700;2024-03-29T04:46:12;99314.88;;;10.46;65.11
79584;BME280;69053;57.338;18.700;2024-03-29T04:49:12;99318.94;;;10.44;64.72
79584;BME280;69053;57.338;18.700;2024-03-29T04:52:13;99320.88;;;10.48;65.15
79584;BME280;69053;57.338;18.700;2024-03-29T04:55:13;99323.53;;;10.43;64.72
79584;BME280;69053;57.338;18.700;2024-03-29T04:58:14;99329.66;;;10.50;64.40
79584;BME280;69053;57.338;18.700;2024-03-29T05:01:14;99332.78;;;10.42;64.80
79584;BME280;69053;57.338;18.700;2024-03-29T05:04:15;99339.22;;;10.36;64.95
79584;BME280;69053;57.338;18.700;2024-03-29T05:07:17;99341.19;;;10.41;65.12
79584;BME280;69053;57.338;18.700;2024-03-29T05:10:17;99342.75;;;10.54;64.26
79584;BME280;69053;57.338;18.700;2024-03-29T05:13:19;99347.75;;;10.28;64.96
79584;BME280;69053;57.338;18.700;2024-03-29T05:16:22;99350.91;;;10.54;64.63
79584;BME280;69053;57.338;18.700;2024-03-29T05:19:22;99354.31;;;10.61;64.29
79584;BME280;69053;57.338;18.700;2024-03-29T05:22:23;99360.66;;;10.49;64.18
79584;BME280;69053;57.338;18.700;2024-03-29T05:25:23;99358.25;;;10.53;64.09
79584;BME280;69053;57.338;18.700;2024-03-29T05:28:24;99357.09;;;10.66;64.21
79584;BME280;69053;57.338;18.700;2024-03-29T05:31:24;99366.34;;;10.65;63.81
79584;BME280;69053;57.338;18.700;2024-03-29T05:34:25;99367.06;;;10.60;64.03
79584;BME280;69053;57.338;18.700;2024-03-29T05:37:25;99373.28;;;10.56;64.13
79584;BME280;69053;57.338;18.700;2024-03-29T05:40:26;99379.38;;;10.63;63.89
79584;BME280;69053;57.338;18.700;2024-03-29T05:43:27;99375.69;;;10.52;64.27
79584;BME280;69053;57.338;18.700;2024-03-29T05:46:28;99380.94;;;10.59;63.74
79584;BME280;69053;57.338;18.700;2024-03-29T05:49:28;99378.38;;;10.69;63.71
79584;BME280;69053;57.338;18.700;2024-03-29T05:52:29;99370.44;;;10.67;64.15
79584;BME280;69053;57.338;18.700;2024-03-29T05:55:29;99369.56;;;10.62;63.98
79584;BME280;69053;57.338;18.700;2024-03-29T05:58:29;99374.09;;;10.73;63.40
79584;BME280;69053;57.338;18.700;2024-03-29T06:01:30;99386.28;;;10.70;63.69
79584;BME280;69053;57.338;18.700;2024-03-29T06:04:31;99386.13;;;10.77;63.91
79584;BME280;69053;57.338;18.700;2024-03-29T06:07:35;99390.34;;;10.85;63.32
79584;BME280;69053;57.338;18.700;2024-03-29T06:10:36;99400.53;;;10.95;62.84
79584;BME280;69053;57.338;18.700;2024-03-29T06:13:36;99396.81;;;11.01;63.05
79584;BME280;69053;57.338;18.700;2024-03-29T06:16:56;99401.44;;;11.00;63.53
79584;BME280;69053;57.338;18.700;2024-03-29T06:20:15;99396.00;;;11.00;63.49
79584;BME280;69053;57.338;18.700;2024-03-29T06:23:15;99404.31;;;11.11;63.11
79584;BME280;69053;57.338;18.700;2024-03-29T06:26:16;99398.09;;;11.15;63.10
79584;BME280;69053;57.338;18.700;2024-03-29T06:29:16;99401.38;;;11.17;63.03
79584;BME280;69053;57.338;18.700;2024-03-29T06:32:17;99410.00;;;11.09;63.09
79584;BME280;69053;57.338;18.700;2024-03-29T06:35:18;99419.41;;;11.18;62.85
79584;BME280;69053;57.338;18.700;2024-03-29T06:38:22;99423.31;;;11.27;62.61
79584;BME280;69053;57.338;18.700;2024-03-29T06:41:22;99430.00;;;11.37;62.79
79584;BME280;69053;57.338;18.700;2024-03-29T06:44:23;99424.66;;;11.25;63.13
79584;BME280;69053;57.338;18.700;2024-03-29T06:47:23;99427.34;;;11.42;62.70
79584;BME280;69053;57.338;18.700;2024-03-29T06:50:24;99420.78;;;11.43;62.33
79584;BME280;69053;57.338;18.700;2024-03-29T06:53:24;99428.41;;;11.41;62.16
79584;BME280;69053;57.338;18.700;2024-03-29T06:56:26;99440.47;;;11.45;62.20
79584;BME280;69053;57.338;18.700;2024-03-29T06:59:26;99448.84;;;11.60;62.20
79584;BME280;69053;57.338;18.700;2024-03-29T07:02:27;99451.34;;;11.67;62.01
79584;BME280;69053;57.338;18.700;2024-03-29T07:05:27;99461.59;;;11.77;61.83
79584;BME280;69053;57.338;18.700;2024-03-29T07:08:27;99456.44;;;11.80;62.07
79584;BME280;69053;57.338;18.700;2024-03-29T07:11:28;99461.00;;;11.75;61.45
79584;BME280;69053;57.338;18.700;2024-03-29T07:14:28;99455.69;;;11.85;61.87
79584;BME280;69053;57.338;18.700;2024-03-29T07:17:31;99461.13;;;12.07;61.82
79584;BME280;69053;57.338;18.700;2024-03-29T07:20:31;99464.38;;;12.04;60.81
79584;BME280;69053;57.338;18.700;2024-03-29T07:23:32;99467.78;;;12.16;60.97
79584;BME280;69053;57.338;18.700;2024-03-29T07:26:33;99479.94;;;12.31;60.77
79584;BME280;69053;57.338;18.700;2024-03-29T07:29:33;99478.78;;;12.54;60.73
79584;BME280;69053;57.338;18.700;2024-03-29T07:32:34;99485.38;;;12.58;61.14
79584;BME280;69053;57.338;18.700;2024-03-29T07:35:35;99501.00;;;12.63;60.60
79584;BME280;69053;57.338;18.700;2024-03-29T07:38:37;99498.91;;;12.75;61.21
79584;BME280;69053;57.338;18.700;2024-03-29T07:41:38;99502.38;;;12.98;60.81
79584;BME280;69053;57.338;18.700;2024-03-29T07:44:38;99501.72;;;13.23;60.57
79584;BME280;69053;57.338;18.700;2024-03-29T07:47:39;99515.41;;;13.23;59.83
79584;BME280;69053;57.338;18.700;2024-03-29T07:50:43;99513.75;;;13.22;59.37
79584;BME280;69053;57.338;18.700;2024-03-29T07:53:43;99515.59;;;13.11;59.31
79584;BME280;69053;57.338;18.700;2024-03-29T07:56:44;99525.28;;;12.91;59.27
79584;BME280;69053;57.338;18.700;2024-03-29T07:59:44;99528.59;;;12.93;59.05
79584;BME280;69053;57.338;18.700;2024-03-29T08:02:45;99531.22;;;13.16;58.99
79584;BME280;69053;57.338;18.700;2024-03-29T08:05:59;99541.22;;;13.37;58.28
79584;BME280;69053;57.338;18.700;2024-03-29T08:09:00;99541.59;;;13.51;58.91
79584;BME280;69053;57.338;18.700;2024-03-29T08:12:00;99547.41;;;13.65;58.58
79584;BME280;69053;57.338;18.700;2024-03-29T08:15:02;99551.06;;;13.76;58.61
79584;BME280;69053;57.338;18.700;2024-03-29T08:18:02;99552.47;;;13.88;58.48
79584;BME280;69053;57.338;18.700;2024-03-29T08:21:03;99548.28;;;14.34;57.43
79584;BME280;69053;57.338;18.700;2024-03-29T08:24:04;99544.47;;;14.45;57.26
79584;BME280;69053;57.338;18.700;2024-03-29T08:27:04;99542.59;;;14.61;57.33
79584;BME280;69053;57.338;18.700;2024-03-29T08:30:05;99550.84;;;14.81;56.57
79584;BME280;69053;57.338;18.700;2024-03-29T08:33:06;99550.56;;;14.88;55.74
79584;BME280;69053;57.338;18.700;2024-03-29T08:36:07;99558.53;;;14.79;55.59
79584;BME280;69053;57.338;18.700;2024-03-29T08:39:08;99557.19;;;15.13;56.07
79584;BME280;69053;57.338;18.700;2024-03-29T08:42:08;99567.84;;;15.09;54.24
79584;BME280;69053;57.338;18.700;2024-03-29T08:45:11;99575.50;;;14.76;54.83
79584;BME280;69053;57.338;18.700;2024-03-29T08:48:13;99582.06;;;14.60;54.42
79584;BME280;69053;57.338;18.700;2024-03-29T08:51:13;99584.00;;;14.80;55.67
79584;BME280;69053;57.338;18.700;2024-03-29T08:54:15;99594.47;;;15.45;54.84
79584;BME280;69053;57.338;18.700;2024-03-29T08:57:15;99596.09;;;15.87;54.06
79584;BME280;69053;57.338;18.700;2024-03-29T09:00:16;99604.91;;;15.37;51.99
79584;BME280;69053;57.338;18.700;2024-03-29T09:03:16;99610.63;;;14.90;53.01
79584;BME280;69053;57.338;18.700;2024-03-29T09:06:16;99608.06;;;14.57;54.19
79584;BME280;69053;57.338;18.700;2024-03-29T09:09:17;99613.72;;;14.30;54.24
79584;BME280;69053;57.338;18.700;2024-03-29T09:12:17;99628.88;;;14.53;54.15
79584;BME280;69053;57.338;18.700;2024-03-29T09:15:18;99646.63;;;14.40;54.10
79584;BME280;69053;57.338;18.700;2024-03-29T09:18:19;99649.88;;;14.27;54.38
79584;BME280;69053;57.338;18.700;2024-03-29T09:21:26;99654.31;;;14.43;54.33
79584;BME280;69053;57.338;18.700;2024-03-29T09:24:27;99644.91;;;14.87;54.71
79584;BME280;69053;57.338;18.700;2024-03-29T09:27:28;99651.28;;;15.29;53.73
79584;BME280;69053;57.338;18.700;2024-03-29T09:30:28;99661.97;;;15.61;52.59
79584;BME280;69053;57.338;18.700;2024-03-29T09:33:29;99674.88;;;15.81;51.61
79584;BME280;69053;57.338;18.700;2024-03-29T09:36:29;99679.22;;;16.13;51.79
79584;BME280;69053;57.338;18.700;2024-03-29T09:39:30;99677.31;;;16.03;51.33
79584;BME280;69053;57.338;18.700;2024-03-29T09:42:32;99684.78;;;15.87;51.61
79584;BME280;69053;57.338;18.700;2024-03-29T09:45:34;99694.91;;;16.02;51.56
79584;BME280;69053;57.338;18.700;2024-03-29T09:48:37;99709.72;;;16.11;51.22
79584;BME280;69053;57.338;18.700;2024-03-29T09:51:39;99714.16;;;16.02;50.71
79584;BME280;69053;57.338;18.700;2024-03-29T09:54:40;99714.38;;;16.21;51.10
79584;BME280;69053;57.338;18.700;2024-03-29T09:57:40;99721.16;;;16.55;50.53
79584;BME280;69053;57.338;18.700;2024-03-29T10:00:42;99728.16;;;16.11;49.40
79584;BME280;69053;57.338;18.700;2024-03-29T10:03:45;99738.31;;;15.90;49.82
79584;BME280;69053;57.338;18.700;2024-03-29T10:06:48;99741.31;;;16.04;50.11
79584;BME280;69053;57.338;18.700;2024-03-29T10:09:51;99746.19;;;16.48;50.30
79584;BME280;69053;57.338;18.700;2024-03-29T10:12:52;99731.50;;;16.83;49.29
79584;BME280;69053;57.338;18.700;2024-03-29T10:15:53;99736.78;;;17.30;49.61
79584;BME280;69053;57.338;18.700;2024-03-29T10:18:58;99754.38;;;17.34;46.97
79584;BME280;69053;57.338;18.700;2024-03-29T10:22:07;99754.50;;;16.17;48.90
79584;BME280;69053;57.338;18.700;2024-03-29T10:25:08;99755.91;;;15.99;49.27
79584;BME280;69053;57.338;18.700;2024-03-29T10:28:09;99760.25;;;16.21;50.09
79584;BME280;69053;57.338;18.700;2024-03-29T10:31:09;99763.13;;;16.91;49.59
79584;BME280;69053;57.338;18.700;2024-03-29T10:34:10;99761.41;;;17.05;47.36
79584;BME280;69053;57.338;18.700;2024-03-29T10:37:11;99758.75;;;16.75;47.47
79584;BME280;69053;57.338;18.700;2024-03-29T10:40:11;99767.13;;;16.18;48.06
79584;BME280;69053;57.338;18.700;2024-03-29T10:43:16;99770.63;;;15.36;48.98
79584;BME280;69053;57.338;18.700;2024-03-29T10:46:16;99776.13;;;15.52;49.72
79584;BME280;69053;57.338;18.700;2024-03-29T10:49:18;99774.97;;;15.22;50.13
79584;BME280;69053;57.338;18.700;2024-03-29T10:52:19;99796.72;;;14.71;50.71
79584;BME280;69053;57.338;18.700;2024-03-29T10:55:21;99792.03;;;14.71;51.01
79584;BME280;69053;57.338;18.700;2024-03-29T10:58:22;99793.53;;;14.89;50.82
79584;BME280;69053;57.338;18.700;2024-03-29T11:01:26;99785.06;;;15.01;51.32
79584;BME280;69053;57.338;18.700;2024-03-29T11:04:33;99791.97;;;15.19;50.21
79584;BME280;69053;57.338;18.700;2024-03-29T11:07:41;99778.34;;;15.55;49.81
79584;BME280;69053;57.338;18.700;2024-03-29T11:10:45;99778.13;;;16.13;48.50
79584;BME280;69053;57.338;18.700;2024-03-29T11:13:57;99785.97;;;16.76;47.60
79584;BME280;69053;57.338;18.700;2024-03-29T11:16:58;99784.00;;;16.97;46.46
79584;BME280;69053;57.338;18.700;2024-03-29T11:19:59;99783.50;;;16.90;46.04
79584;BME280;69053;57.338;18.700;2024-03-29T11:23:06;99804.06;;;17.03;46.14
79584;BME280;69053;57.338;18.700;2024-03-29T11:26:09;99795.88;;;16.77;46.34
79584;BME280;69053;57.338;18.700;2024-03-29T11:29:20;99797.56;;;16.58;46.02
79584;BME280;69053;57.338;18.700;2024-03-29T11:32:37;99794.88;;;15.96;46.74
79584;BME280;69053;57.338;18.700;2024-03-29T11:35:40;99802.00;;;16.23;47.50
79584;BME280;69053;57.338;18.700;2024-03-29T11:38:40;99811.91;;;16.19;46.50
79584;BME280;69053;57.338;18.700;2024-03-29T11:41:46;99808.06;;;16.25;46.62
79584;BME280;69053;57.338;18.700;2024-03-29T11:44:47;99804.19;;;16.52;47.06
79584;BME280;69053;57.338;18.700;2024-03-29T11:47:48;99804.84;;;17.09;46.20
79584;BME280;69053;57.338;18.700;2024-03-29T11:50:51;99815.56;;;17.15;45.76
79584;BME280;69053;57.338;18.700;2024-03-29T11:53:52;99811.34;;;17.33;46.15
79584;BME280;69053;57.338;18.700;2024-03-29T11:56:53;99814.69;;;17.75;45.60
79584;BME280;69053;57.338;18.700;2024-03-29T11:59:53;99827.47;;;17.55;44.91
79584;BME280;69053;57.338;18.700;2024-03-29T12:02:53;99835.75;;;16.90;45.93
79584;BME280;69053;57.338;18.700;2024-03-29T12:05:56;99830.56;;;16.58;46.18
79584;BME280;69053;57.338;18.700;2024-03-29T12:09:01;99824.09;;;17.09;45.84
79584;BME280;69053;57.338;18.700;2024-03-29T12:12:06;99830.88;;;17.37;45.59
79584;BME280;69053;57.338;18.700;2024-03-29T12:15:10;99830.03;;;17.91;44.87
79584;BME280;69053;57.338;18.700;2024-03-29T12:18:10;99832.28;;;18.18;44.36
79584;BME280;69053;57.338;18.700;2024-03-29T12:21:12;99834.38;;;18.32;43.26
79584;BME280;69053;57.338;18.700;2024-03-29T12:24:16;99842.28;;;17.65;43.78
79584;BME280;69053;57.338;18.700;2024-03-29T12:27:17;99833.06;;;17.90;44.27
79584;BME280;69053;57.338;18.700;2024-03-29T12:30:17;99835.16;;;18.03;43.11
79584;BME280;69053;57.338;18.700;2024-03-29T12:33:19;99838.25;;;18.31;43.07
79584;BME280;69053;57.338;18.700;2024-03-29T12:36:24;99840.47;;;18.29;42.88
79584;BME280;69053;57.338;18.700;2024-03-29T12:39:30;99844.59;;;18.61;41.63
79584;BME280;69053;57.338;18.700;2024-03-29T12:42:33;99853.22;;;18.20;41.63
79584;BME280;69053;57.338;18.700;2024-03-29T12:45:35;99860.47;;;18.45;42.81
79584;BME280;69053;57.338;18.700;2024-03-29T12:48:36;99855.44;;;18.52;42.08
79584;BME280;69053;57.338;18.700;2024-03-29T12:51:39;99857.84;;;18.29;42.04
79584;BME280;69053;57.338;18.700;2024-03-29T12:54:39;99853.09;;;18.35;42.14
79584;BME280;69053;57.338;18.700;2024-03-29T12:57:40;99851.13;;;18.41;41.67
79584;BME280;69053;57.338;18.700;2024-03-29T13:00:43;99835.97;;;18.67;41.26
79584;BME280;69053;57.338;18.700;2024-03-29T13:03:44;99846.06;;;18.77;40.44
79584;BME280;69053;57.338;18.700;2024-03-29T13:06:44;99863.97;;;19.09;40.84
79584;BME280;69053;57.338;18.700;2024-03-29T13:09:45;99857.47;;;19.24;39.63
79584;BME280;69053;57.338;18.700;2024-03-29T13:12:46;99861.91;;;19.63;40.66
79584;BME280;69053;57.338;18.700;2024-03-29T13:15:49;99876.41;;;19.30;38.52
79584;BME280;69053;57.338;18.700;2024-03-29T13:18:51;99866.75;;;19.52;39.37
79584;BME280;69053;57.338;18.700;2024-03-29T13:21:51;99887.75;;;19.29;38.86
79584;BME280;69053;57.338;18.700;2024-03-29T13:24:52;99876.06;;;18.89;39.33
79584;BME280;69053;57.338;18.700;2024-03-29T13:27:53;99883.88;;;18.77;39.51
79584;BME280;69053;57.338;18.700;2024-03-29T13:30:55;99890.56;;;18.70;39.85
79584;BME280;69053;57.338;18.700;2024-03-29T13:33:56;99889.28;;;18.92;40.29
79584;BME280;69053;57.338;18.700;2024-03-29T13:37:04;99889.78;;;19.42;39.46
79584;BME280;69053;57.338;18.700;2024-03-29T13:40:07;99891.66;;;19.90;39.40
79584;BME280;69053;57.338;18.700;2024-03-29T13:43:08;99891.53;;;19.81;38.64
79584;BME280;69053;57.338;18.700;2024-03-29T13:46:08;99901.19;;;19.84;38.59
79584;BME280;69053;57.338;18.700;2024-03-29T13:49:09;99913.53;;;19.43;38.64
79584;BME280;69053;57.338;18.700;2024-03-29T13:52:11;99896.81;;;19.35;39.62
79584;BME280;69053;57.338;18.700;2024-03-29T13:55:12;99909.31;;;19.27;39.24
79584;BME280;69053;57.338;18.700;2024-03-29T13:58:12;99897.56;;;19.40;39.71
79584;BME280;69053;57.338;18.700;2024-03-29T14:01:13;99893.50;;;19.57;39.55
79584;BME280;69053;57.338;18.700;2024-03-29T14:04:13;99903.19;;;19.30;39.19
79584;BME280;69053;57.338;18.700;2024-03-29T14:07:15;99910.44;;;19.02;39.16
79584;BME280;69053;57.338;18.700;2024-03-29T14:10:15;99900.69;;;18.46;40.73
79584;BME280;69053;57.338;18.700;2024-03-29T14:13:16;99902.72;;;18.69;40.98
79584;BME280;69053;57.338;18.700;2024-03-29T14:16:16;99904.66;;;18.69;40.15
79584;BME280;69053;57.338;18.700;2024-03-29T14:19:17;99910.84;;;18.21;40.40
79584;BME280;69053;57.338;18.700;2024-03-29T14:22:17;99908.28;;;18.30;40.71
79584;BME280;69053;57.338;18.700;2024-03-29T14:25:20;99905.03;;;18.57;40.88
79584;BME280;69053;57.338;18.700;2024-03-29T14:28:20;99907.47;;;18.93;40.88
79584;BME280;69053;57.338;18.700;2024-03-29T14:31:21;99901.75;;;19.14;39.78
79584;BME280;69053;57.338;18.700;2024-03-29T14:34:21;99909.84;;;19.05;39.54
79584;BME280;69053;57.338;18.700;2024-03-29T14:37:22;99911.75;;;19.04;39.62
79584;BME280;69053;57.338;18.700;2024-03-29T14:40:23;99915.03;;;18.77;39.14
79584;BME280;69053;57.338;18.700;2024-03-29T14:43:24;99913.66;;;18.80;39.41
79584;BME280;69053;57.338;18.700;2024-03-29T14:46:25;99918.19;;;19.00;39.86
79584;BME280;69053;57.338;18.700;2024-03-29T14:49:26;99918.44;;;19.27;39.86
79584;BME280;69053;57.338;18.700;2024-03-29T14:52:27;99930.53;;;19.32;39.43
79584;BME280;69053;57.338;18.700;2024-03-29T14:55:27;99928.50;;;19.37;39.01
79584;BME280;69053;57.338;18.700;2024-03-29T14:58:28;99935.97;;;19.37;39.12
79584;BME280;69053;57.338;18.700;2024-03-29T15:01:28;99943.97;;;19.14;39.10
79584;BME280;69053;57.338;18.700;2024-03-29T15:04:29;99949.66;;;18.99;39.72
79584;BME280;69053;57.338;18.700;2024-03-29T15:07:29;99955.69;;;18.66;40.22
79584;BME280;69053;57.338;18.700;2024-03-29T15:10:30;99951.44;;;18.10;41.32
79584;BME280;69053;57.338;18.700;2024-03-29T15:13:32;99946.31;;;17.83;42.21
79584;BME280;69053;57.338;18.700;2024-03-29T15:16:32;99953.53;;;17.63;42.09
79584;BME280;69053;57.338;18.700;2024-03-29T15:19:33;99960.78;;;17.39;42.85
79584;BME280;69053;57.338;18.700;2024-03-29T15:22:33;99948.50;;;17.16;43.09
79584;BME280;69053;57.338;18.700;2024-03-29T15:25:34;99957.59;;;16.91;43.55
79584;BME280;69053;57.338;18.700;2024-03-29T15:28:35;99952.34;;;16.58;43.96
79584;BME280;69053;57.338;18.700;2024-03-29T15:31:54;99949.03;;;16.30;44.38
79584;BME280;69053;57.338;18.700;2024-03-29T15:34:55;99960.03;;;16.25;44.80
79584;BME280;69053;57.338;18.700;2024-03-29T15:37:55;99959.75;;;16.22;45.01
79584;BME280;69053;57.338;18.700;2024-03-29T15:40:57;99970.19;;;16.20;45.03
79584;BME280;69053;57.338;18.700;2024-03-29T15:43:59;99967.41;;;16.09;45.11
79584;BME280;69053;57.338;18.700;2024-03-29T15:47:00;99959.41;;;15.92;45.47
79584;BME280;69053;57.338;18.700;2024-03-29T15:50:00;99965.44;;;15.94;45.64